CLW3 weather

Laurel / Whittington
Ontario, Canada

Public forecast

Using degrees Celsius for public forecast. Weather courtesy of forecast.io.

Closest aviation weather report (METAR) to Laurel / Whittington

Closest report is CFB Borden, 20.9 nm (38.8 km) NNE. Retrieved 2019/10/19 05:00 UTC (33 minutes ago):

CYBN 190500Z AUTO 00000KT 9SM CLR M03/M03 A3005 RMK ICG SLP184

Closest aviation forecast (TAF) to Laurel / Whittington

Forecast is more than 6 hours old.

Closest forecast is CFB Borden, 20.9 nm (38.8 km) NNE. Retrieved 2019/10/18 18:33 UTC (11 hours ago):

TAF TAF CYBN 181730Z 1818/1906 33010KT P6SM BKN020 BECMG 1818/1819 SCT025 SCT240 BECMG 1823/1901 VRB03KT RMK FCST BASED ON AUTO OBS NXT FCST BY 190000Z